sim
Sign-in with your pilot id or email,
or register
Callsign
Passwort

Schedule Details

Flight Number: OEO3000
Departure: Frankfurt Airport (EDDF) at 13:00
Arrival: Munich Airport (EDDM) at 14:10

Weather Information
Getting current METAR information for EDDF 242150Z 19004KT 9999 FEW010 SCT035 14/13 Q1000 NOSIG
Getting current METAR information for EDDM 242150Z 27018G29KT 9999 -RA SCT019 BKN025 15/13 Q1004 BECMG 25010KT

Schedule Frequency

Route Map